Joshua Tree, California
Current Conditions -  °F | °C
As of 12:56 PM on Friday 24 Oct 2014 (Local Time) from KNXP Reporting Station
Clear Clear  
Wind Chill: 85°   Ceiling: Unl
Heat Index: 85°   Visibility: 10mi
Dew Point: 40°   Wind: 12mph
Humidity: 20%   Direction: 140°SE
Pressure: 30.09"   Gusts: NA
Location:  34.13°N, 116.31°W
Report Text: KNXP 241956Z 14010KT 10SM CLR 29/04 A3009 RMK AO2 SLP158 T02940044
Loading
Personal Weather Stations






























Interactive Weather Map
Tropical Storm Tracking
New forecast layout! Learn more

10-Day Weather Forecast

Advertisements
Track Severe Weather on mobile